Time;durP1;ratioP1;P1;durP2;ratioP2;P2;SDS_P1;SDS_P2;PMS_P1;PMS_P2;Temp;Humidity;BMP_temperature;BMP_pressure;BME280_temperature;BME280_humidity;BME280_pressure;Samples;Min_cycle;Max_cycle;Signal;HPM_P1;HPM_P2
2021/09/07 00:01:50;;;;;;;19.58;14.25;;;;;;;;;;5014788;28;20507;-70
2021/09/07 00:04:16;;;;;;;18.20;13.90;;;;;;;;;;5018803;28;20079;-70
2021/09/07 00:06:43;;;;;;;17.02;14.57;;;;;;;;;;5018041;28;20268;-70
2021/09/07 00:09:09;;;;;;;15.05;13.45;;;;;;;;;;5016923;28;20125;-70
2021/09/07 00:11:35;;;;;;;18.58;13.50;;;;;;;;;;5019698;28;20498;-70
2021/09/07 00:14:01;;;;;;;16.27;14.55;;;;;;;;;;5019407;28;20051;-70
2021/09/07 00:16:27;;;;;;;16.25;13.05;;;;;;;;;;5020854;28;20108;-70
2021/09/07 00:18:53;;;;;;;19.60;14.48;;;;;;;;;;5011919;28;20080;-67
2021/09/07 00:21:19;;;;;;;18.55;14.50;;;;;;;;;;5017737;28;20108;-67
2021/09/07 00:23:45;;;;;;;17.58;14.60;;;;;;;;;;5016930;28;20069;-67
2021/09/07 00:26:11;;;;;;;15.10;13.55;;;;;;;;;;5008190;28;20053;-67
2021/09/07 00:28:37;;;;;;;15.90;14.05;;;;;;;;;;5000988;28;20144;-67
2021/09/07 00:31:03;;;;;;;18.42;14.18;;;;;;;;;;5020063;28;20125;-67
2021/09/07 00:33:30;;;;;;;16.55;13.30;;;;;;;;;;5021130;28;20069;-67
2021/09/07 00:35:56;;;;;;;16.52;14.50;;;;;;;;;;5022625;28;20410;-68
2021/09/07 00:38:22;;;;;;;17.77;13.90;;;;;;;;;;5009456;28;20404;-68
2021/09/07 00:40:48;;;;;;;18.42;14.93;;;;;;;;;;5021704;28;20512;-68
2021/09/07 00:43:14;;;;;;;15.52;13.38;;;;;;;;;;5026952;28;20053;-68
2021/09/07 00:45:41;;;;;;;16.33;14.50;;;;;;;;;;5020232;28;20063;-68
2021/09/07 00:48:07;;;;;;;16.02;13.57;;;;;;;;;;5015627;28;20048;-68
2021/09/07 00:50:33;;;;;;;17.25;14.38;;;;;;;;;;5046529;28;20088;-68
2021/09/07 00:52:59;;;;;;;14.98;13.43;;;;;;;;;;5021308;28;20037;-68
2021/09/07 00:55:26;;;;;;;18.42;14.80;;;;;;;;;;5015859;28;20049;-69
2021/09/07 00:57:52;;;;;;;15.85;13.48;;;;;;;;;;5017158;28;20049;-68
2021/09/07 01:00:18;;;;;;;19.45;13.65;;;;;;;;;;5015924;28;20038;-68
2021/09/07 01:02:45;;;;;;;15.63;13.77;;;;;;;;;;5018005;28;20686;-68
2021/09/07 01:05:11;;;;;;;17.27;14.30;;;;;;;;;;5012613;28;20040;-68
2021/09/07 01:07:38;;;;;;;17.15;14.48;;;;;;;;;;5003375;28;20076;-68
2021/09/07 01:10:05;;;;;;;16.63;14.35;;;;;;;;;;5017618;28;20057;-68
2021/09/07 01:12:32;;;;;;;15.45;13.75;;;;;;;;;;5019972;28;20386;-68
2021/09/07 01:14:58;;;;;;;15.98;13.75;;;;;;;;;;5009335;28;20042;-69
2021/09/07 01:17:24;;;;;;;18.65;14.13;;;;;;;;;;5022565;28;20049;-68
2021/09/07 01:19:50;;;;;;;14.27;12.77;;;;;;;;;;5015329;28;20050;-68
2021/09/07 01:22:21;;;;;;;16.67;13.48;;;;;;;;;;5016686;28;20041;-68
2021/09/07 01:24:48;;;;;;;17.67;14.43;;;;;;;;;;5012255;28;20522;-68
2021/09/07 01:27:14;;;;;;;17.85;14.90;;;;;;;;;;5021824;28;20474;-69
2021/09/07 01:29:41;;;;;;;19.80;14.27;;;;;;;;;;5004538;28;20029;-70
2021/09/07 01:32:12;;;;;;;18.73;14.70;;;;;;;;;;5017020;28;20037;-69
2021/09/07 01:34:38;;;;;;;19.88;14.93;;;;;;;;;;5024972;28;20737;-70
2021/09/07 01:37:05;;;;;;;19.58;15.32;;;;;;;;;;5007192;28;20042;-70
2021/09/07 01:39:31;;;;;;;17.73;13.82;;;;;;;;;;5020274;28;20038;-69
2021/09/07 01:41:57;;;;;;;19.20;15.30;;;;;;;;;;5011968;28;20033;-69
2021/09/07 01:44:24;;;;;;;16.38;13.57;;;;;;;;;;5020135;28;20079;-69
2021/09/07 01:46:50;;;;;;;20.85;15.10;;;;;;;;;;5015928;28;20041;-69
2021/09/07 01:49:16;;;;;;;20.10;16.17;;;;;;;;;;5019009;28;20197;-69
2021/09/07 01:51:43;;;;;;;18.15;14.52;;;;;;;;;;5012805;28;20041;-68
2021/09/07 01:54:10;;;;;;;17.20;14.40;;;;;;;;;;5019476;28;20057;-68
2021/09/07 01:56:36;;;;;;;20.67;15.18;;;;;;;;;;5012468;28;20054;-69
2021/09/07 01:59:03;;;;;;;15.13;13.52;;;;;;;;;;5017701;28;20080;-69
2021/09/07 02:01:29;;;;;;;17.48;13.68;;;;;;;;;;4996728;28;20050;-69
2021/09/07 02:03:55;;;;;;;16.33;14.20;;;;;;;;;;5015964;28;20088;-68
2021/09/07 02:06:21;;;;;;;16.55;14.77;;;;;;;;;;5008469;28;20042;-69
2021/09/07 02:08:47;;;;;;;16.48;14.65;;;;;;;;;;5024507;28;20118;-69
2021/09/07 02:11:13;;;;;;;16.52;14.77;;;;;;;;;;5015764;28;20413;-69
2021/09/07 02:13:39;;;;;;;16.75;13.70;;;;;;;;;;5015924;28;20064;-69
2021/09/07 02:16:05;;;;;;;16.17;13.43;;;;;;;;;;5021992;28;20548;-69
2021/09/07 02:18:31;;;;;;;15.80;12.88;;;;;;;;;;5010327;28;20192;-69
2021/09/07 02:20:57;;;;;;;16.13;13.55;;;;;;;;;;5024005;28;20143;-69
2021/09/07 02:23:24;;;;;;;15.07;12.68;;;;;;;;;;5014808;28;20029;-69
2021/09/07 02:25:50;;;;;;;15.88;12.98;;;;;;;;;;5025643;28;20049;-69
2021/09/07 02:28:16;;;;;;;17.02;13.57;;;;;;;;;;5018063;28;20072;-69
2021/09/07 02:30:42;;;;;;;15.85;14.07;;;;;;;;;;5006882;28;20127;-69
2021/09/07 02:33:08;;;;;;;15.77;12.80;;;;;;;;;;5011702;28;20042;-69
2021/09/07 02:35:35;;;;;;;15.25;13.65;;;;;;;;;;5016857;28;20391;-69
2021/09/07 02:38:02;;;;;;;17.02;14.65;;;;;;;;;;5009311;28;20501;-69
2021/09/07 02:40:28;;;;;;;16.15;13.32;;;;;;;;;;5023378;28;20513;-69
2021/09/07 02:42:55;;;;;;;16.00;13.38;;;;;;;;;;5027735;28;20038;-69
2021/09/07 02:45:21;;;;;;;16.80;14.35;;;;;;;;;;5025339;28;20040;-69
2021/09/07 02:47:47;;;;;;;19.35;14.95;;;;;;;;;;5019437;28;20052;-69
2021/09/07 02:50:15;;;;;;;18.73;14.63;;;;;;;;;;5019598;28;20045;-69
2021/09/07 02:52:41;;;;;;;16.75;14.13;;;;;;;;;;5025821;28;20530;-69
2021/09/07 02:55:07;;;;;;;18.38;15.38;;;;;;;;;;5017077;28;20053;-69
2021/09/07 02:57:33;;;;;;;17.80;15.88;;;;;;;;;;5019887;28;20063;-69
2021/09/07 03:00:00;;;;;;;18.25;14.43;;;;;;;;;;5031121;28;20108;-69
2021/09/07 03:02:26;;;;;;;17.95;15.55;;;;;;;;;;5021046;28;20183;-69
2021/09/07 03:04:52;;;;;;;17.67;14.73;;;;;;;;;;5015331;28;20070;-69
2021/09/07 03:07:19;;;;;;;17.55;14.55;;;;;;;;;;5019961;28;20414;-69
2021/09/07 03:09:45;;;;;;;21.45;16.15;;;;;;;;;;5016248;28;20073;-69
2021/09/07 03:12:11;;;;;;;15.25;13.50;;;;;;;;;;5019711;28;20504;-69
2021/09/07 03:14:38;;;;;;;17.90;15.98;;;;;;;;;;4999715;28;20057;-69
2021/09/07 03:17:04;;;;;;;20.10;16.00;;;;;;;;;;5019249;28;20061;-69
2021/09/07 03:19:31;;;;;;;18.13;15.18;;;;;;;;;;5013088;28;20046;-69
2021/09/07 03:21:57;;;;;;;16.83;14.75;;;;;;;;;;5023532;28;20481;-69
2021/09/07 03:24:23;;;;;;;20.20;15.65;;;;;;;;;;5015171;28;20396;-69
2021/09/07 03:26:49;;;;;;;19.00;15.70;;;;;;;;;;5025039;28;20060;-69
2021/09/07 03:29:15;;;;;;;18.92;15.18;;;;;;;;;;5017037;28;20621;-69
2021/09/07 03:31:41;;;;;;;17.38;14.55;;;;;;;;;;5011984;28;20524;-69
2021/09/07 03:34:07;;;;;;;20.70;16.85;;;;;;;;;;5023310;28;20037;-69
2021/09/07 03:36:33;;;;;;;16.88;14.75;;;;;;;;;;5015857;28;20143;-69
2021/09/07 03:38:59;;;;;;;19.00;16.40;;;;;;;;;;5019049;28;20437;-69
2021/09/07 03:41:25;;;;;;;16.92;15.13;;;;;;;;;;5013518;28;20049;-69
2021/09/07 03:43:52;;;;;;;17.48;15.60;;;;;;;;;;5025679;28;20040;-69
2021/09/07 03:46:18;;;;;;;20.00;15.43;;;;;;;;;;5010029;28;20049;-69
2021/09/07 03:48:44;;;;;;;18.50;15.75;;;;;;;;;;5019035;28;20052;-69
2021/09/07 03:51:10;;;;;;;20.27;15.63;;;;;;;;;;5016101;28;20061;-69
2021/09/07 03:53:36;;;;;;;18.27;15.15;;;;;;;;;;5019816;28;20040;-69
2021/09/07 03:56:02;;;;;;;20.70;15.93;;;;;;;;;;5017607;28;20057;-69
2021/09/07 03:58:28;;;;;;;18.63;15.15;;;;;;;;;;5016240;28;20109;-69
2021/09/07 04:00:54;;;;;;;18.05;14.85;;;;;;;;;;5010730;28;20042;-69
2021/09/07 04:03:21;;;;;;;19.25;15.60;;;;;;;;;;5018403;28;20079;-69
2021/09/07 04:05:48;;;;;;;19.20;16.73;;;;;;;;;;5021200;28;20042;-69
2021/09/07 04:08:15;;;;;;;17.75;15.88;;;;;;;;;;5020545;28;20370;-69
2021/09/07 04:10:41;;;;;;;18.08;15.07;;;;;;;;;;5017950;28;20107;-69
2021/09/07 04:13:07;;;;;;;20.55;16.88;;;;;;;;;;5017202;28;20066;-69
2021/09/07 04:15:33;;;;;;;16.35;14.65;;;;;;;;;;5008065;28;20033;-69
2021/09/07 04:17:59;;;;;;;17.48;15.13;;;;;;;;;;5018450;28;20103;-69
2021/09/07 04:20:26;;;;;;;17.40;15.27;;;;;;;;;;5022429;28;20445;-69
2021/09/07 04:22:52;;;;;;;16.65;14.73;;;;;;;;;;5019271;28;20420;-69
2021/09/07 04:25:19;;;;;;;21.33;16.80;;;;;;;;;;5016599;28;20663;-69
2021/09/07 04:27:45;;;;;;;18.27;16.20;;;;;;;;;;5010346;28;20466;-69
2021/09/07 04:30:11;;;;;;;20.65;16.08;;;;;;;;;;5021961;28;20175;-69
2021/09/07 04:32:37;;;;;;;17.65;15.43;;;;;;;;;;5012588;28;20041;-69
2021/09/07 04:35:06;;;;;;;17.88;14.85;;;;;;;;;;5025243;28;20129;-69
2021/09/07 04:37:33;;;;;;;19.63;15.73;;;;;;;;;;5014630;28;20382;-69
2021/09/07 04:39:59;;;;;;;20.77;16.35;;;;;;;;;;5019924;28;20091;-69
2021/09/07 04:42:25;;;;;;;17.75;15.70;;;;;;;;;;5019828;28;20045;-69
2021/09/07 04:44:51;;;;;;;20.23;16.92;;;;;;;;;;5027263;28;20045;-69
2021/09/07 04:47:17;;;;;;;17.33;15.20;;;;;;;;;;5018795;28;20042;-69
2021/09/07 04:49:43;;;;;;;17.02;15.23;;;;;;;;;;5021056;28;20494;-69
2021/09/07 04:52:09;;;;;;;17.40;15.60;;;;;;;;;;5019485;28;20559;-69
2021/09/07 04:54:35;;;;;;;18.20;15.30;;;;;;;;;;5007718;28;20042;-69
2021/09/07 04:57:01;;;;;;;18.85;16.73;;;;;;;;;;5016822;28;20081;-69
2021/09/07 04:59:28;;;;;;;19.17;15.43;;;;;;;;;;5014318;28;20073;-69
2021/09/07 05:01:54;;;;;;;18.45;16.33;;;;;;;;;;5016549;28;20077;-70
2021/09/07 05:04:20;;;;;;;17.20;15.40;;;;;;;;;;5012874;28;20057;-70
2021/09/07 05:06:46;;;;;;;18.35;16.38;;;;;;;;;;5021320;28;20041;-70
2021/09/07 05:09:12;;;;;;;17.50;15.23;;;;;;;;;;5015703;28;20050;-70
2021/09/07 05:11:38;;;;;;;18.73;15.95;;;;;;;;;;5022149;28;20046;-70
2021/09/07 05:14:06;;;;;;;19.38;16.35;;;;;;;;;;5018542;28;20034;-70
2021/09/07 05:16:32;;;;;;;18.90;16.05;;;;;;;;;;5017238;28;20123;-70
2021/09/07 05:18:58;;;;;;;16.92;15.10;;;;;;;;;;5014062;28;20609;-70
2021/09/07 05:21:24;;;;;;;16.90;14.70;;;;;;;;;;5017370;28;20387;-69
2021/09/07 05:23:50;;;;;;;18.90;15.82;;;;;;;;;;5014349;28;20077;-69
2021/09/07 05:26:16;;;;;;;16.98;15.07;;;;;;;;;;5022517;28;20042;-69
2021/09/07 05:28:42;;;;;;;18.33;14.73;;;;;;;;;;5014724;28;20034;-69
2021/09/07 05:31:08;;;;;;;18.80;15.32;;;;;;;;;;5016349;28;20410;-69
2021/09/07 05:33:34;;;;;;;17.83;15.15;;;;;;;;;;5009330;28;20096;-70
2021/09/07 05:36:00;;;;;;;18.45;15.77;;;;;;;;;;5016968;28;20053;-70
2021/09/07 05:38:26;;;;;;;17.75;15.35;;;;;;;;;;5022187;28;20140;-69
2021/09/07 05:40:53;;;;;;;19.95;14.68;;;;;;;;;;5021128;28;20141;-70
2021/09/07 05:43:19;;;;;;;17.45;15.75;;;;;;;;;;5026241;28;20297;-70
2021/09/07 05:45:45;;;;;;;17.73;15.75;;;;;;;;;;5017904;28;20624;-70
2021/09/07 05:48:11;;;;;;;20.35;15.85;;;;;;;;;;5023860;28;20038;-70
2021/09/07 05:50:37;;;;;;;21.85;15.80;;;;;;;;;;5017849;28;20103;-69
2021/09/07 05:53:03;;;;;;;18.25;15.30;;;;;;;;;;5022267;28;20406;-69
2021/09/07 05:55:29;;;;;;;19.08;15.57;;;;;;;;;;5018696;28;20038;-70
2021/09/07 05:57:56;;;;;;;21.52;17.00;;;;;;;;;;5025795;28;20057;-69
2021/09/07 06:00:22;;;;;;;19.10;15.05;;;;;;;;;;5015504;28;20115;-69
2021/09/07 06:02:51;;;;;;;18.35;15.52;;;;;;;;;;5009719;28;20149;-69
2021/09/07 06:05:17;;;;;;;20.02;16.27;;;;;;;;;;5018174;28;20386;-69
2021/09/07 06:07:44;;;;;;;17.48;15.35;;;;;;;;;;5012267;28;20057;-70
2021/09/07 06:10:10;;;;;;;19.17;15.80;;;;;;;;;;5019021;28;20046;-70
2021/09/07 06:12:36;;;;;;;18.33;16.38;;;;;;;;;;5023251;28;20045;-70
2021/09/07 06:15:02;;;;;;;20.45;16.00;;;;;;;;;;5024517;28;20400;-70
2021/09/07 06:17:28;;;;;;;18.90;16.00;;;;;;;;;;5001630;28;20052;-70
2021/09/07 06:19:55;;;;;;;17.08;14.95;;;;;;;;;;5017574;28;20095;-70
2021/09/07 06:22:21;;;;;;;17.45;14.60;;;;;;;;;;5020574;28;20045;-70
2021/09/07 06:24:47;;;;;;;17.35;13.52;;;;;;;;;;5016486;28;20144;-70
2021/09/07 06:27:13;;;;;;;19.30;15.02;;;;;;;;;;5014975;28;20042;-70
2021/09/07 06:29:39;;;;;;;18.67;15.15;;;;;;;;;;5020071;28;20030;-70
2021/09/07 06:32:05;;;;;;;18.15;14.45;;;;;;;;;;5021139;28;20381;-70
2021/09/07 06:34:31;;;;;;;17.67;14.70;;;;;;;;;;5035688;28;20112;-70
2021/09/07 06:36:57;;;;;;;15.93;13.35;;;;;;;;;;5022425;28;20048;-70
2021/09/07 06:39:23;;;;;;;18.17;15.43;;;;;;;;;;5025479;28;20168;-70
2021/09/07 06:41:50;;;;;;;17.67;15.15;;;;;;;;;;5017133;28;20042;-70
2021/09/07 06:44:16;;;;;;;17.55;14.20;;;;;;;;;;5020665;28;20069;-70
2021/09/07 06:46:42;;;;;;;17.95;15.55;;;;;;;;;;5018897;28;20045;-70
2021/09/07 06:49:08;;;;;;;16.40;14.65;;;;;;;;;;5017669;28;20045;-70
2021/09/07 06:51:34;;;;;;;18.90;15.43;;;;;;;;;;5021830;28;20550;-70
2021/09/07 06:54:00;;;;;;;20.25;15.35;;;;;;;;;;5016433;28;20045;-70
2021/09/07 06:56:26;;;;;;;19.27;15.70;;;;;;;;;;5026165;28;20080;-70
2021/09/07 06:58:52;;;;;;;16.80;14.32;;;;;;;;;;5016995;28;20049;-70
2021/09/07 07:01:18;;;;;;;23.30;16.80;;;;;;;;;;5026246;28;20042;-70
2021/09/07 07:03:44;;;;;;;18.88;15.70;;;;;;;;;;5022051;28;20083;-70
2021/09/07 07:06:10;;;;;;;18.17;14.80;;;;;;;;;;5043090;28;20461;-70
2021/09/07 07:08:39;;;;;;;19.25;15.90;;;;;;;;;;5020204;28;20065;-70
2021/09/07 07:11:05;;;;;;;17.15;15.40;;;;;;;;;;5030191;28;20155;-70
2021/09/07 07:13:31;;;;;;;17.85;15.10;;;;;;;;;;5023226;28;20041;-70
2021/09/07 07:15:57;;;;;;;19.13;15.70;;;;;;;;;;5024442;28;20045;-70
2021/09/07 07:18:23;;;;;;;17.05;15.20;;;;;;;;;;5021858;28;20137;-70
2021/09/07 07:20:49;;;;;;;17.17;15.23;;;;;;;;;;5026066;28;20095;-71
2021/09/07 07:23:15;;;;;;;19.67;15.00;;;;;;;;;;5024443;28;20056;-68
2021/09/07 07:25:42;;;;;;;17.55;15.20;;;;;;;;;;5020025;28;20042;-70
2021/09/07 07:28:08;;;;;;;18.75;14.80;;;;;;;;;;5027202;28;20091;-70
2021/09/07 07:30:34;;;;;;;17.60;15.27;;;;;;;;;;5014830;28;20061;-71
2021/09/07 07:33:00;;;;;;;18.88;15.35;;;;;;;;;;5022507;28;20105;-71
2021/09/07 07:35:26;;;;;;;17.95;15.50;;;;;;;;;;5019757;28;20049;-71
2021/09/07 07:37:52;;;;;;;19.48;15.00;;;;;;;;;;5023097;28;20119;-71
2021/09/07 07:40:18;;;;;;;19.58;15.15;;;;;;;;;;5017513;28;20050;-71
2021/09/07 07:42:44;;;;;;;17.55;14.35;;;;;;;;;;5025662;28;20104;-72
2021/09/07 07:45:11;;;;;;;17.75;15.77;;;;;;;;;;5001240;28;20045;-71
2021/09/07 07:47:37;;;;;;;16.35;14.65;;;;;;;;;;5019944;28;20042;-70
2021/09/07 07:50:04;;;;;;;17.20;14.88;;;;;;;;;;5027996;28;20045;-70
2021/09/07 07:52:30;;;;;;;16.65;14.68;;;;;;;;;;4999999;28;20405;-70
2021/09/07 07:54:56;;;;;;;17.77;15.70;;;;;;;;;;5017488;28;20056;-70
2021/09/07 07:57:22;;;;;;;18.20;15.93;;;;;;;;;;5012627;28;20081;-70
2021/09/07 07:59:48;;;;;;;18.55;15.88;;;;;;;;;;5019839;28;20050;-70
2021/09/07 08:02:14;;;;;;;18.05;15.55;;;;;;;;;;5017738;28;20216;-70
2021/09/07 08:04:40;;;;;;;16.10;14.00;;;;;;;;;;5017221;28;20029;-70
2021/09/07 08:07:07;;;;;;;18.58;14.90;;;;;;;;;;4998525;28;20093;-71
2021/09/07 08:09:34;;;;;;;17.75;15.90;;;;;;;;;;5014450;28;20057;-72
2021/09/07 08:12:00;;;;;;;16.90;14.95;;;;;;;;;;5002602;28;20073;-72
2021/09/07 08:14:27;;;;;;;16.67;14.38;;;;;;;;;;5024713;28;20087;-72
2021/09/07 08:16:53;;;;;;;16.52;14.73;;;;;;;;;;5018224;28;20045;-72
2021/09/07 08:19:19;;;;;;;18.75;15.38;;;;;;;;;;5018140;28;20242;-72
2021/09/07 08:21:45;;;;;;;16.08;14.48;;;;;;;;;;5010600;28;20104;-72
2021/09/07 08:24:11;;;;;;;15.52;13.48;;;;;;;;;;5006071;28;20050;-72
2021/09/07 08:26:37;;;;;;;16.02;14.35;;;;;;;;;;5017629;28;20037;-72
2021/09/07 08:29:03;;;;;;;14.85;13.07;;;;;;;;;;5002434;28;20161;-72
2021/09/07 08:31:29;;;;;;;17.77;14.65;;;;;;;;;;5008763;28;20119;-72
2021/09/07 08:33:55;;;;;;;19.65;13.40;;;;;;;;;;5022838;28;20045;-72
2021/09/07 08:36:22;;;;;;;16.80;14.02;;;;;;;;;;5010910;28;20045;-72
2021/09/07 08:38:48;;;;;;;17.30;14.43;;;;;;;;;;5016599;28;20490;-72
2021/09/07 08:41:15;;;;;;;15.68;13.80;;;;;;;;;;5014491;28;20049;-72
2021/09/07 08:43:42;;;;;;;19.75;13.88;;;;;;;;;;5009888;28;20168;-72
2021/09/07 08:46:08;;;;;;;17.88;14.27;;;;;;;;;;5034281;28;20046;-72
2021/09/07 08:48:34;;;;;;;16.02;14.32;;;;;;;;;;4996393;28;20089;-72
2021/09/07 08:51:00;;;;;;;15.55;13.95;;;;;;;;;;5020334;28;20049;-72
2021/09/07 08:53:27;;;;;;;16.88;13.65;;;;;;;;;;5007116;28;20062;-72
2021/09/07 08:55:53;;;;;;;14.95;13.25;;;;;;;;;;5023947;28;20502;-72
2021/09/07 08:58:19;;;;;;;14.38;12.73;;;;;;;;;;5015022;28;20045;-73
2021/09/07 09:00:51;;;;;;;13.85;12.18;;;;;;;;;;5024830;28;20195;-73
2021/09/07 09:03:18;;;;;;;14.45;13.05;;;;;;;;;;5011065;28;20057;-73
2021/09/07 09:05:46;;;;;;;13.93;12.52;;;;;;;;;;5015606;28;20162;-73
2021/09/07 09:08:13;;;;;;;12.90;11.63;;;;;;;;;;4995775;28;20470;-73
2021/09/07 09:10:40;;;;;;;13.45;12.15;;;;;;;;;;5022180;28;20518;-73
2021/09/07 09:13:08;;;;;;;13.40;11.45;;;;;;;;;;5013559;28;20056;-73
2021/09/07 09:15:34;;;;;;;16.27;12.32;;;;;;;;;;5015356;28;20049;-73
2021/09/07 09:18:04;;;;;;;11.57;10.38;;;;;;;;;;4996038;28;20057;-74
2021/09/07 09:20:30;;;;;;;12.25;10.95;;;;;;;;;;5018168;28;20128;-74
2021/09/07 09:22:57;;;;;;;14.02;10.57;;;;;;;;;;5017027;28;20053;-73
2021/09/07 09:25:26;;;;;;;12.48;10.75;;;;;;;;;;5018228;28;20068;-73
2021/09/07 09:27:56;;;;;;;12.25;10.77;;;;;;;;;;5007545;28;20123;-73
2021/09/07 09:30:41;;;;;;;15.25;10.82;;;;;;;;;;5025294;28;20046;-74
2021/09/07 09:33:08;;;;;;;11.32;10.05;;;;;;;;;;5047913;28;20072;-73
2021/09/07 09:35:51;;;;;;;11.00;9.90;;;;;;;;;;5012611;28;20056;-73
2021/09/07 09:38:20;;;;;;;11.63;10.48;;;;;;;;;;5022419;28;20107;-73
2021/09/07 09:40:53;;;;;;;12.23;9.95;;;;;;;;;;5004685;28;20049;-73
2021/09/07 09:43:46;;;;;;;10.43;9.32;;;;;;;;;;5013867;28;20041;-73
2021/09/07 09:46:21;;;;;;;10.70;9.52;;;;;;;;;;5006037;28;20053;-74
2021/09/07 09:48:47;;;;;;;13.07;10.52;;;;;;;;;;5020185;28;20381;-73
2021/09/07 09:51:18;;;;;;;12.73;10.13;;;;;;;;;;5010287;28;20442;-73
2021/09/07 09:53:48;;;;;;;10.95;9.85;;;;;;;;;;5012074;28;20107;-73
2021/09/07 09:56:14;;;;;;;10.98;9.98;;;;;;;;;;5010652;28;20429;-73
2021/09/07 09:58:41;;;;;;;10.75;9.15;;;;;;;;;;5017564;28;20099;-73
2021/09/07 10:01:07;;;;;;;11.50;10.27;;;;;;;;;;5016351;28;20578;-73
2021/09/07 10:03:33;;;;;;;10.88;9.77;;;;;;;;;;5024572;28;20076;-73
2021/09/07 10:06:00;;;;;;;10.68;9.48;;;;;;;;;;5009236;28;20088;-73
2021/09/07 10:08:26;;;;;;;10.80;9.80;;;;;;;;;;5029259;28;20053;-73
2021/09/07 10:11:04;;;;;;;13.57;10.10;;;;;;;;;;5014990;28;20498;-73
2021/09/07 10:13:32;;;;;;;12.05;9.98;;;;;;;;;;5024290;28;20069;-73
2021/09/07 10:16:00;;;;;;;12.85;9.70;;;;;;;;;;5010828;28;20050;-73
2021/09/07 10:23:02;;;;;;;11.88;10.45;;;;;;;;;;5011507;28;20502;-73
2021/09/07 10:24:25;;;;;;;13.02;11.13;;;;;;;;;;5010869;28;20128;-73
2021/09/07 10:26:52;;;;;;;12.15;10.57;;;;;;;;;;5016166;28;20111;-73
2021/09/07 10:29:21;;;;;;;11.27;10.15;;;;;;;;;;5015976;28;20406;-73
2021/09/07 10:31:50;;;;;;;11.68;10.52;;;;;;;;;;5014402;28;20088;-73
2021/09/07 10:34:17;;;;;;;12.10;10.90;;;;;;;;;;5015981;28;20049;-73
2021/09/07 10:36:59;;;;;;;10.98;9.73;;;;;;;;;;5007933;28;20049;-73
2021/09/07 10:39:33;;;;;;;11.77;10.57;;;;;;;;;;5029205;28;20498;-73
2021/09/07 10:42:02;;;;;;;13.07;11.68;;;;;;;;;;5013284;28;20319;-73
2021/09/07 10:44:31;;;;;;;11.40;10.18;;;;;;;;;;5004531;28;20071;-73
2021/09/07 10:46:58;;;;;;;11.52;10.43;;;;;;;;;;4997920;28;20489;-73
2021/09/07 10:49:27;;;;;;;11.93;10.68;;;;;;;;;;5022931;28;20046;-73
2021/09/07 10:52:09;;;;;;;12.75;11.48;;;;;;;;;;5016105;28;20092;-73
2021/09/07 10:54:42;;;;;;;11.07;9.73;;;;;;;;;;5022291;28;20050;-73
2021/09/07 10:57:08;;;;;;;13.10;9.63;;;;;;;;;;5011963;28;20320;-73
2021/09/07 10:59:47;;;;;;;10.85;9.40;;;;;;;;;;5016147;28;20050;-73
2021/09/07 11:02:32;;;;;;;13.20;10.00;;;;;;;;;;5016371;28;20256;-73
2021/09/07 11:04:58;;;;;;;10.70;9.68;;;;;;;;;;5019665;28;20033;-73
2021/09/07 11:07:47;;;;;;;12.25;9.07;;;;;;;;;;5015524;28;20049;-73
2021/09/07 11:10:26;;;;;;;10.35;9.02;;;;;;;;;;5017499;28;20057;-72
2021/09/07 11:12:55;;;;;;;10.13;9.15;;;;;;;;;;5012170;28;20501;-72
2021/09/07 11:15:23;;;;;;;10.60;9.50;;;;;;;;;;5023818;28;20107;-72
2021/09/07 11:18:20;;;;;;;10.73;9.73;;;;;;;;;;5012902;28;20120;-72
2021/09/07 11:20:47;;;;;;;12.15;10.32;;;;;;;;;;5013758;28;20081;-72
2021/09/07 11:23:14;;;;;;;10.32;9.32;;;;;;;;;;5011518;28;20045;-72
2021/09/07 11:25:42;;;;;;;11.13;9.38;;;;;;;;;;5021811;28;20054;-72
2021/09/07 11:28:10;;;;;;;10.68;9.52;;;;;;;;;;5018792;28;23768;-72
2021/09/07 11:30:37;;;;;;;10.82;9.73;;;;;;;;;;5003284;28;20095;-72
2021/09/07 11:33:04;;;;;;;12.40;9.48;;;;;;;;;;5012479;28;20195;-72
2021/09/07 11:35:34;;;;;;;10.18;8.68;;;;;;;;;;5018302;28;20081;-72
2021/09/07 11:38:02;;;;;;;10.52;9.57;;;;;;;;;;5021587;28;20552;-72
2021/09/07 11:40:29;;;;;;;11.05;9.80;;;;;;;;;;5012055;28;20045;-72
2021/09/07 11:42:55;;;;;;;10.82;9.63;;;;;;;;;;5003536;28;20053;-72
2021/09/07 11:45:22;;;;;;;12.68;10.73;;;;;;;;;;5015677;28;20053;-72
2021/09/07 11:47:48;;;;;;;11.68;10.05;;;;;;;;;;5016011;28;20054;-72
2021/09/07 11:50:16;;;;;;;12.13;10.57;;;;;;;;;;5013430;28;20037;-72
2021/09/07 11:52:44;;;;;;;11.40;10.27;;;;;;;;;;5020611;28;20092;-72
2021/09/07 11:55:30;;;;;;;12.73;10.13;;;;;;;;;;5025180;28;20050;-72
2021/09/07 11:57:57;;;;;;;11.07;9.30;;;;;;;;;;5022581;28;20076;-72
2021/09/07 12:00:23;;;;;;;10.60;9.43;;;;;;;;;;5015976;28;20399;-73
2021/09/07 12:03:09;;;;;;;10.27;9.25;;;;;;;;;;5014466;28;20046;-72
2021/09/07 12:05:57;;;;;;;15.05;9.55;;;;;;;;;;5012331;28;20054;-72
2021/09/07 12:08:40;;;;;;;10.73;9.30;;;;;;;;;;5023671;28;20436;-72
2021/09/07 12:11:07;;;;;;;12.77;11.32;;;;;;;;;;5010324;28;20052;-72
2021/09/07 12:13:33;;;;;;;12.15;10.35;;;;;;;;;;5020708;28;20041;-73
2021/09/07 12:16:00;;;;;;;11.93;10.77;;;;;;;;;;5017397;28;20096;-73
2021/09/07 12:18:31;;;;;;;13.65;10.82;;;;;;;;;;5016416;28;20096;-73
2021/09/07 12:21:11;;;;;;;10.93;9.80;;;;;;;;;;5031220;28;20081;-72
2021/09/07 12:23:38;;;;;;;13.52;12.05;;;;;;;;;;5022984;28;20498;-72
2021/09/07 12:26:04;;;;;;;11.98;10.77;;;;;;;;;;5013940;28;20053;-72
2021/09/07 12:28:31;;;;;;;12.07;10.70;;;;;;;;;;5016939;28;20561;-73
2021/09/07 12:31:17;;;;;;;12.32;11.13;;;;;;;;;;5015771;28;20040;-72
2021/09/07 12:34:02;;;;;;;11.68;10.48;;;;;;;;;;5006212;28;20504;-72
2021/09/07 12:36:41;;;;;;;13.82;11.65;;;;;;;;;;5014304;28;20054;-71
2021/09/07 12:39:07;;;;;;;16.48;10.60;;;;;;;;;;5016083;28;20524;-72
2021/09/07 12:41:34;;;;;;;12.93;11.35;;;;;;;;;;5013344;28;21815;-72
2021/09/07 12:44:00;;;;;;;11.77;10.48;;;;;;;;;;5020070;28;20041;-72
2021/09/07 12:46:26;;;;;;;11.85;10.65;;;;;;;;;;4996917;28;20128;-72
2021/09/07 12:48:52;;;;;;;11.23;10.18;;;;;;;;;;5017775;28;20107;-72
2021/09/07 12:51:20;;;;;;;14.90;11.80;;;;;;;;;;5012265;28;20053;-72
2021/09/07 12:53:47;;;;;;;13.38;11.93;;;;;;;;;;5015752;28;20053;-72
2021/09/07 12:56:18;;;;;;;15.80;12.48;;;;;;;;;;5017073;28;20057;-72
2021/09/07 12:58:51;;;;;;;13.10;11.73;;;;;;;;;;5020895;28;20598;-72
2021/09/07 13:01:17;;;;;;;;;;;;;;;;;;5018806;28;20042;-72
2021/09/07 13:03:43;;;;;;;13.68;11.57;;;;;;;;;;5018574;28;19923;-72
2021/09/07 13:06:10;;;;;;;12.23;11.02;;;;;;;;;;5019543;28;20061;-72
2021/09/07 13:08:36;;;;;;;12.75;11.52;;;;;;;;;;5012272;28;20474;-70
2021/09/07 13:11:03;;;;;;;14.02;12.60;;;;;;;;;;5023347;28;20409;-70
2021/09/07 13:13:29;;;;;;;13.50;12.20;;;;;;;;;;5012417;28;20391;-71
2021/09/07 13:15:55;;;;;;;14.30;12.90;;;;;;;;;;5021619;28;20046;-71
2021/09/07 13:18:21;;;;;;;16.40;12.13;;;;;;;;;;5014693;28;20037;-71
2021/09/07 13:20:47;;;;;;;14.20;12.85;;;;;;;;;;5015389;28;20069;-71
2021/09/07 13:23:13;;;;;;;13.80;12.50;;;;;;;;;;5015479;28;20060;-71
2021/09/07 13:25:40;;;;;;;13.05;11.48;;;;;;;;;;5020333;28;20034;-71
2021/09/07 13:28:06;;;;;;;15.48;12.35;;;;;;;;;;5018404;28;20034;-71
2021/09/07 13:30:32;;;;;;;13.40;11.30;;;;;;;;;;5016641;28;20497;-71
2021/09/07 13:32:58;;;;;;;15.00;13.50;;;;;;;;;;5015393;28;20076;-71
2021/09/07 13:35:25;;;;;;;15.20;13.13;;;;;;;;;;5021118;28;20497;-71
2021/09/07 13:37:51;;;;;;;13.93;11.93;;;;;;;;;;5008743;28;20115;-71
2021/09/07 13:40:17;;;;;;;12.48;11.27;;;;;;;;;;5016340;28;20056;-71
2021/09/07 13:42:43;;;;;;;14.35;12.80;;;;;;;;;;5015240;28;20038;-71
2021/09/07 13:45:09;;;;;;;15.07;12.00;;;;;;;;;;5020079;28;20036;-71
2021/09/07 13:47:35;;;;;;;12.98;11.18;;;;;;;;;;5030793;28;20501;-71
2021/09/07 13:50:01;;;;;;;11.23;10.23;;;;;;;;;;5015689;28;20562;-71
2021/09/07 13:52:27;;;;;;;12.60;10.98;;;;;;;;;;5024699;28;20536;-71
2021/09/07 13:54:53;;;;;;;12.63;9.93;;;;;;;;;;5014757;28;20038;-71
2021/09/07 13:57:20;;;;;;;12.95;10.43;;;;;;;;;;5015309;28;20129;-71
2021/09/07 13:59:46;;;;;;;11.30;10.18;;;;;;;;;;5013550;28;20045;-71
2021/09/07 14:02:12;;;;;;;16.92;13.60;;;;;;;;;;5017002;28;20076;-71
2021/09/07 14:04:38;;;;;;;11.73;10.60;;;;;;;;;;5006105;28;20033;-71
2021/09/07 14:07:04;;;;;;;11.27;9.95;;;;;;;;;;5016041;28;20140;-71
2021/09/07 14:09:30;;;;;;;13.23;9.82;;;;;;;;;;5007636;28;20034;-71
2021/09/07 14:11:56;;;;;;;12.98;9.88;;;;;;;;;;5035054;28;20045;-71
2021/09/07 14:14:22;;;;;;;13.55;11.07;;;;;;;;;;5007302;28;20091;-71
2021/09/07 14:16:48;;;;;;;14.13;12.15;;;;;;;;;;5016227;28;20121;-71
2021/09/07 14:19:14;;;;;;;14.50;10.65;;;;;;;;;;5017353;28;20037;-71
2021/09/07 14:21:40;;;;;;;14.93;12.60;;;;;;;;;;5010319;28;20065;-70
2021/09/07 14:24:06;;;;;;;15.50;10.57;;;;;;;;;;5019457;28;20116;-71